createdAt,value
2022-10-04T00:00:36.935Z,11.77
2022-10-04T00:03:26.896Z,11.81
2022-10-04T00:05:56.507Z,11.80
2022-10-04T00:08:27.408Z,11.83
2022-10-04T00:11:13.241Z,11.75
2022-10-04T00:13:40.890Z,11.73
2022-10-04T00:16:08.988Z,11.71
2022-10-04T00:18:41.333Z,11.69
2022-10-04T00:21:09.202Z,11.79
2022-10-04T00:23:37.165Z,11.70
2022-10-04T00:26:08.080Z,11.70
2022-10-04T00:28:36.003Z,11.69
2022-10-04T00:31:20.916Z,11.70
2022-10-04T00:33:50.631Z,11.63
2022-10-04T00:36:24.242Z,11.59
2022-10-04T00:39:04.623Z,11.52
2022-10-04T00:41:47.407Z,11.48
2022-10-04T00:44:28.466Z,11.44
2022-10-04T00:46:57.207Z,11.44
2022-10-04T00:49:26.884Z,11.41
2022-10-04T00:52:15.895Z,11.34
2022-10-04T00:55:05.415Z,11.27
2022-10-04T00:57:38.386Z,11.23
2022-10-04T01:00:17.821Z,11.19
2022-10-04T01:03:14.971Z,11.19
2022-10-04T01:05:44.800Z,11.15
2022-10-04T01:08:23.358Z,11.14
2022-10-04T01:10:52.396Z,11.11
2022-10-04T01:13:23.563Z,11.00
2022-10-04T01:16:02.948Z,11.00
2022-10-04T01:18:34.525Z,10.97
2022-10-04T01:21:09.250Z,10.99
2022-10-04T01:23:43.601Z,10.98
2022-10-04T01:26:26.817Z,10.97
2022-10-04T01:28:56.297Z,10.98
2022-10-04T01:31:24.026Z,10.95
2022-10-04T01:33:51.920Z,10.91
2022-10-04T01:36:20.478Z,10.87
2022-10-04T01:38:48.368Z,10.83
2022-10-04T01:41:18.304Z,10.80
2022-10-04T01:43:47.914Z,10.76
2022-10-04T01:46:19.573Z,10.78
2022-10-04T01:48:48.248Z,10.77
2022-10-04T01:51:21.237Z,10.79
2022-10-04T01:53:54.020Z,10.78
2022-10-04T01:56:25.968Z,10.73
2022-10-04T01:58:56.300Z,10.73
2022-10-04T02:01:44.240Z,10.71
2022-10-04T02:04:22.038Z,10.69
2022-10-04T02:06:56.461Z,10.70
2022-10-04T02:09:26.823Z,10.65
2022-10-04T02:11:58.617Z,10.62
2022-10-04T02:14:28.325Z,10.56
2022-10-04T02:16:56.416Z,10.52
2022-10-04T02:19:27.660Z,10.51
2022-10-04T02:21:55.360Z,10.43
2022-10-04T02:24:23.061Z,10.45
2022-10-04T02:26:51.955Z,10.42
2022-10-04T02:29:22.579Z,10.40
2022-10-04T02:32:08.692Z,10.33
2022-10-04T02:34:36.766Z,10.24
2022-10-04T02:37:04.815Z,10.25
2022-10-04T02:39:34.329Z,10.17
2022-10-04T02:42:04.402Z,10.16
2022-10-04T02:44:41.269Z,10.15
2022-10-04T02:47:11.758Z,10.14
2022-10-04T02:49:53.346Z,10.08
2022-10-04T02:52:37.293Z,10.01
2022-10-04T02:55:11.075Z,9.94
2022-10-04T02:57:41.864Z,9.89
2022-10-04T03:00:12.554Z,9.82
2022-10-04T03:02:41.679Z,9.76
2022-10-04T03:05:11.240Z,9.69
2022-10-04T03:07:38.966Z,9.59
2022-10-04T03:10:12.195Z,9.55
2022-10-04T03:12:40.280Z,9.53
2022-10-04T03:15:11.932Z,9.50
2022-10-04T03:17:41.954Z,9.48
2022-10-04T03:20:11.336Z,9.46
2022-10-04T03:22:42.580Z,9.44
2022-10-04T03:25:29.796Z,9.43
2022-10-04T03:28:00.315Z,9.38
2022-10-04T03:30:28.047Z,9.32
2022-10-04T03:32:56.872Z,9.29
2022-10-04T03:35:38.117Z,9.27
2022-10-04T03:38:07.042Z,9.26
2022-10-04T03:40:34.825Z,9.28
2022-10-04T03:43:02.472Z,9.29
2022-10-04T03:45:30.098Z,9.29
2022-10-04T03:48:01.387Z,9.30
2022-10-04T03:50:30.025Z,9.29
2022-10-04T03:53:06.133Z,9.31
2022-10-04T03:55:36.048Z,9.34
2022-10-04T03:58:06.967Z,9.36
2022-10-04T04:00:37.158Z,9.40
2022-10-04T04:03:06.310Z,9.45
2022-10-04T04:05:44.921Z,9.46
2022-10-04T04:08:38.628Z,9.53
2022-10-04T04:11:07.376Z,9.57
2022-10-04T04:13:46.710Z,9.61
2022-10-04T04:16:15.018Z,9.67
2022-10-04T04:18:43.953Z,9.74
2022-10-04T04:21:14.394Z,9.79
2022-10-04T04:23:43.785Z,9.88
2022-10-04T04:26:17.922Z,9.91
2022-10-04T04:28:49.270Z,10.00
2022-10-04T04:31:21.301Z,10.03
2022-10-04T04:34:00.817Z,10.11
2022-10-04T04:36:30.776Z,10.17
2022-10-04T04:39:34.586Z,10.25
2022-10-04T04:42:12.684Z,10.33
2022-10-04T04:44:50.085Z,10.41
2022-10-04T04:47:36.136Z,10.49
2022-10-04T04:50:06.192Z,10.54
2022-10-04T04:52:34.034Z,10.64
2022-10-04T04:55:01.732Z,10.77
2022-10-04T04:57:29.679Z,10.84
2022-10-04T04:59:59.045Z,10.95
2022-10-04T05:02:35.245Z,11.04
2022-10-04T05:05:22.234Z,11.13
2022-10-04T05:07:50.674Z,11.21
2022-10-04T05:10:32.425Z,11.28
2022-10-04T05:13:01.549Z,11.43
2022-10-04T05:15:33.616Z,11.48
2022-10-04T05:18:02.577Z,11.53
2022-10-04T05:20:31.670Z,11.63
2022-10-04T05:22:59.328Z,11.70
2022-10-04T05:25:32.524Z,11.76
2022-10-04T05:28:00.239Z,11.86
2022-10-04T05:30:48.943Z,11.91
2022-10-04T05:33:22.822Z,11.98
2022-10-04T05:36:12.219Z,12.06
2022-10-04T05:38:42.233Z,12.16
2022-10-04T05:41:22.585Z,12.28
2022-10-04T05:43:50.553Z,12.28
2022-10-04T05:46:19.424Z,12.23
2022-10-04T05:48:49.541Z,12.32
2022-10-04T05:51:32.252Z,12.40
2022-10-04T05:54:03.086Z,12.43
2022-10-04T05:56:30.758Z,12.53
2022-10-04T05:59:02.213Z,12.49
2022-10-04T06:02:09.238Z,12.57
2022-10-04T06:05:00.525Z,12.52
2022-10-04T06:07:34.108Z,12.58
2022-10-04T06:10:39.453Z,12.54
2022-10-04T06:13:41.420Z,12.67
2022-10-04T06:16:12.429Z,12.59
2022-10-04T06:19:09.183Z,12.57
2022-10-04T06:21:40.424Z,12.73
2022-10-04T06:24:11.006Z,12.86
2022-10-04T06:26:44.579Z,12.88
2022-10-04T06:29:18.035Z,12.89
2022-10-04T06:32:26.784Z,12.85
2022-10-04T06:35:14.314Z,12.86
2022-10-04T06:38:23.737Z,13.07
2022-10-04T06:41:09.136Z,13.23
2022-10-04T06:43:42.436Z,13.38
2022-10-04T06:46:31.474Z,13.43
2022-10-04T06:49:11.807Z,13.50
2022-10-04T06:52:03.978Z,13.62
2022-10-04T06:54:40.776Z,13.59
2022-10-04T06:57:31.824Z,13.64
2022-10-04T07:00:19.484Z,13.78
2022-10-04T07:03:01.612Z,13.60
2022-10-04T07:05:46.243Z,13.75
2022-10-04T07:08:34.222Z,13.90
2022-10-04T07:11:14.164Z,14.04
2022-10-04T07:14:04.620Z,13.98
2022-10-04T07:17:01.091Z,13.97
2022-10-04T07:19:33.850Z,14.14
2022-10-04T07:22:07.091Z,14.14
2022-10-04T07:24:43.483Z,14.12
2022-10-04T07:27:14.434Z,14.24
2022-10-04T07:29:42.928Z,14.30
2022-10-04T07:32:38.889Z,14.37
2022-10-04T07:35:17.047Z,14.36
2022-10-04T07:38:02.187Z,14.26
2022-10-04T07:40:41.388Z,14.25
2022-10-04T07:43:23.232Z,14.35
2022-10-04T07:45:51.755Z,14.39
2022-10-04T07:48:23.566Z,14.24
2022-10-04T07:51:24.717Z,14.23
2022-10-04T07:54:21.791Z,14.33
2022-10-04T07:57:04.331Z,14.43
2022-10-04T07:59:44.238Z,14.55
2022-10-04T08:02:46.653Z,14.77
2022-10-04T08:05:32.726Z,14.94
2022-10-04T08:08:22.390Z,15.04
2022-10-04T08:11:17.551Z,15.33
2022-10-04T08:14:20.580Z,15.22
2022-10-04T08:16:51.409Z,15.05
2022-10-04T08:19:57.889Z,15.20
2022-10-04T08:22:55.511Z,15.15
2022-10-04T08:25:38.056Z,15.56
2022-10-04T08:28:39.663Z,15.81
2022-10-04T08:31:29.829Z,15.51
2022-10-04T08:34:13.086Z,15.20
2022-10-04T08:37:03.338Z,14.97
2022-10-04T08:39:48.989Z,14.77
2022-10-04T08:42:29.942Z,14.90
2022-10-04T08:45:35.004Z,15.21
2022-10-04T08:48:31.220Z,15.37
2022-10-04T08:51:20.465Z,15.35
2022-10-04T08:54:04.146Z,15.30
2022-10-04T08:57:11.194Z,15.47
2022-10-04T08:59:58.132Z,15.50
2022-10-04T09:02:37.979Z,15.45
2022-10-04T09:05:39.244Z,15.59
2022-10-04T09:08:34.884Z,15.33
2022-10-04T09:11:07.029Z,15.13
2022-10-04T09:13:38.768Z,14.92
2022-10-04T09:16:15.850Z,15.24
2022-10-04T09:18:51.404Z,15.60
2022-10-04T09:21:29.174Z,15.74
2022-10-04T09:23:56.748Z,15.78
2022-10-04T09:26:36.388Z,15.94
2022-10-04T09:29:22.348Z,15.95
2022-10-04T09:32:02.029Z,16.25
2022-10-04T09:34:51.804Z,16.41
2022-10-04T09:37:37.602Z,16.70
2022-10-04T09:40:34.840Z,16.70
2022-10-04T09:43:06.172Z,16.85
2022-10-04T09:46:03.895Z,16.85
2022-10-04T09:48:53.757Z,16.31
2022-10-04T09:51:23.424Z,16.31
2022-10-04T09:54:45.826Z,16.20
2022-10-04T09:57:45.889Z,16.15
2022-10-04T10:01:05.687Z,15.95
2022-10-04T10:04:10.969Z,15.96
2022-10-04T10:06:46.499Z,15.96
2022-10-04T10:09:47.507Z,16.04
2022-10-04T10:13:14.988Z,16.16
2022-10-04T10:22:48.382Z,16.56
2022-10-04T10:25:52.675Z,16.50
2022-10-04T10:28:26.262Z,16.64
2022-10-04T10:31:18.670Z,16.91
2022-10-04T10:34:11.639Z,17.03
2022-10-04T10:36:54.330Z,16.79
2022-10-04T10:39:52.196Z,16.79
2022-10-04T10:42:38.053Z,16.68
2022-10-04T10:45:05.746Z,16.30
2022-10-04T10:47:42.577Z,16.31
2022-10-04T10:50:28.027Z,16.45
2022-10-04T10:53:25.356Z,16.40
2022-10-04T10:56:13.529Z,16.31
2022-10-04T10:58:54.391Z,16.25
2022-10-04T11:01:25.034Z,16.08
2022-10-04T11:04:26.545Z,16.39
2022-10-04T11:07:18.633Z,16.31
2022-10-04T11:10:21.158Z,16.45
2022-10-04T11:13:07.628Z,16.52
2022-10-04T11:16:07.950Z,16.29
2022-10-04T11:18:57.946Z,15.95
2022-10-04T11:22:07.582Z,15.76
2022-10-04T11:24:43.479Z,15.71
2022-10-04T11:27:19.524Z,15.90
2022-10-04T11:30:26.461Z,16.01
2022-10-04T11:33:19.185Z,16.01
2022-10-04T11:35:58.640Z,16.06
2022-10-04T11:38:51.359Z,16.17
2022-10-04T11:41:23.424Z,16.30
2022-10-04T11:44:16.005Z,16.28
2022-10-04T11:47:01.471Z,15.98
2022-10-04T11:49:44.238Z,16.03
2022-10-04T11:52:37.261Z,16.05
2022-10-04T11:55:10.914Z,15.97
2022-10-04T11:57:44.431Z,16.01
2022-10-04T12:00:20.482Z,15.99
2022-10-04T12:03:14.009Z,16.13
2022-10-04T12:06:08.432Z,16.55
2022-10-04T12:09:06.108Z,16.23
2022-10-04T12:12:08.456Z,16.28
2022-10-04T12:14:54.701Z,16.20
2022-10-04T12:17:41.199Z,15.98
2022-10-04T12:20:40.644Z,16.20
2022-10-04T12:23:34.449Z,15.94
2022-10-04T12:26:34.051Z,15.99
2022-10-04T12:29:10.558Z,16.33
2022-10-04T12:31:43.249Z,16.83
2022-10-04T12:34:16.812Z,17.17
2022-10-04T12:37:26.027Z,16.97
2022-10-04T12:40:03.613Z,17.41
2022-10-04T12:42:47.061Z,17.70
2022-10-04T12:45:23.633Z,17.77
2022-10-04T12:48:33.160Z,17.21
2022-10-04T12:51:38.381Z,16.71
2022-10-04T12:54:26.658Z,16.12
2022-10-04T12:57:33.405Z,15.71
2022-10-04T13:00:19.525Z,15.75
2022-10-04T13:03:33.666Z,15.62
2022-10-04T13:06:06.965Z,15.44
2022-10-04T13:08:40.363Z,15.49
2022-10-04T13:11:07.925Z,15.39
2022-10-04T13:13:53.320Z,15.36
2022-10-04T13:19:35.650Z,15.14
2022-10-04T13:22:06.608Z,15.10
2022-10-04T13:24:56.941Z,15.01
2022-10-04T13:27:51.145Z,14.95
2022-10-04T13:30:23.713Z,14.81
2022-10-04T13:33:14.351Z,14.72
2022-10-04T13:35:58.251Z,14.68
2022-10-04T13:38:59.447Z,14.75
2022-10-04T13:41:58.033Z,14.66
2022-10-04T13:44:47.467Z,14.74
2022-10-04T13:47:34.468Z,14.73
2022-10-04T13:50:09.779Z,14.69
2022-10-04T13:53:08.569Z,14.64
2022-10-04T13:56:08.708Z,14.70
2022-10-04T13:58:39.352Z,14.77
2022-10-04T14:01:33.247Z,14.70
2022-10-04T14:04:27.200Z,14.78
2022-10-04T14:07:17.640Z,14.78
2022-10-04T14:10:17.032Z,14.60
2022-10-04T14:12:56.246Z,14.55
2022-10-04T14:15:42.524Z,14.37
2022-10-04T14:18:47.603Z,14.32
2022-10-04T14:22:03.970Z,14.50
2022-10-04T14:25:08.727Z,14.78
2022-10-04T14:28:14.941Z,14.92
2022-10-04T14:31:02.081Z,14.74
2022-10-04T14:34:14.589Z,14.67
2022-10-04T14:36:56.996Z,14.60
2022-10-04T14:40:01.845Z,14.56
2022-10-04T14:43:15.153Z,14.58
2022-10-04T14:45:55.005Z,14.58
2022-10-04T14:48:43.936Z,14.49
2022-10-04T14:51:29.564Z,14.37
2022-10-04T14:54:10.617Z,14.30
2022-10-04T14:56:58.263Z,14.14
2022-10-04T14:59:36.056Z,14.05
2022-10-04T15:02:03.835Z,14.00
2022-10-04T15:05:12.531Z,14.01
2022-10-04T15:07:49.362Z,13.82
2022-10-04T15:10:24.745Z,13.82
2022-10-04T15:13:21.691Z,13.70
2022-10-04T15:15:55.121Z,13.56
2022-10-04T15:18:47.095Z,13.39
2022-10-04T15:21:44.692Z,13.28
2022-10-04T15:24:18.678Z,13.18
2022-10-04T15:27:20.324Z,12.99
2022-10-04T15:29:52.304Z,12.90
2022-10-04T15:32:24.452Z,12.79
2022-10-04T15:35:14.150Z,12.67
2022-10-04T15:37:48.768Z,12.59
2022-10-04T15:40:22.374Z,12.46
2022-10-04T15:43:15.386Z,12.39
2022-10-04T15:46:09.730Z,12.28
2022-10-04T15:48:51.910Z,12.20
2022-10-04T15:51:19.552Z,12.09
2022-10-04T15:54:26.436Z,12.09
2022-10-04T15:57:24.217Z,11.93
2022-10-04T16:00:29.054Z,11.87
2022-10-04T16:03:17.913Z,11.80
2022-10-04T16:06:20.488Z,11.72
2022-10-04T16:09:18.752Z,11.72
2022-10-04T16:12:20.678Z,11.69
2022-10-04T16:15:22.162Z,11.63
2022-10-04T16:17:59.279Z,11.61
2022-10-04T16:20:56.265Z,11.56
2022-10-04T16:23:28.541Z,11.53
2022-10-04T16:25:57.831Z,11.52
2022-10-04T16:28:44.061Z,11.51
2022-10-04T16:31:23.410Z,11.46
2022-10-04T16:34:03.118Z,11.39
2022-10-04T16:36:43.393Z,11.24
2022-10-04T16:39:30.202Z,11.12
2022-10-04T16:42:04.520Z,10.98
2022-10-04T16:44:53.946Z,10.88
2022-10-04T16:47:47.733Z,10.79
2022-10-04T16:50:36.423Z,10.68
2022-10-04T16:53:21.220Z,10.64
2022-10-04T16:55:53.464Z,10.61
2022-10-04T16:58:27.203Z,10.56
2022-10-04T17:01:24.099Z,10.51
2022-10-04T17:04:03.724Z,10.48
2022-10-04T17:06:37.864Z,10.42
2022-10-04T17:09:15.667Z,10.37
2022-10-04T17:12:06.139Z,10.28
2022-10-04T17:14:39.842Z,10.23
2022-10-04T17:17:40.078Z,10.15
2022-10-04T17:20:41.105Z,10.05
2022-10-04T17:23:43.992Z,9.97
2022-10-04T17:26:17.494Z,9.88
2022-10-04T17:29:22.149Z,9.76
2022-10-04T17:32:08.214Z,9.68
2022-10-04T17:34:50.242Z,9.65
2022-10-04T17:37:17.929Z,9.60
2022-10-04T17:40:03.080Z,9.50
2022-10-04T17:42:56.893Z,9.38
2022-10-04T17:45:56.871Z,9.30
2022-10-04T17:48:48.163Z,9.19
2022-10-04T17:51:52.502Z,9.10
2022-10-04T17:54:51.492Z,8.99
2022-10-04T17:57:25.984Z,8.92
2022-10-04T18:00:18.038Z,8.87
2022-10-04T18:03:01.084Z,8.77
2022-10-04T18:05:41.414Z,8.69
2022-10-04T18:08:27.094Z,8.62
2022-10-04T18:10:58.854Z,8.56
2022-10-04T18:13:37.755Z,8.53
2022-10-04T18:16:23.686Z,8.45
2022-10-04T18:18:51.433Z,8.42
2022-10-04T18:21:30.536Z,8.36
2022-10-04T18:23:59.249Z,8.28
2022-10-04T18:26:32.347Z,8.24
2022-10-04T18:29:01.406Z,8.17
2022-10-04T18:31:30.390Z,8.16
2022-10-04T18:34:18.275Z,8.16
2022-10-04T18:36:53.591Z,8.22
2022-10-04T18:39:22.970Z,8.30
2022-10-04T18:41:58.235Z,8.49
2022-10-04T18:44:31.227Z,8.75
2022-10-04T18:47:00.040Z,8.94
2022-10-04T18:49:29.618Z,8.97
2022-10-04T18:52:12.666Z,8.96
2022-10-04T18:54:49.055Z,8.95
2022-10-04T18:57:32.015Z,8.93
2022-10-04T19:00:31.124Z,8.82
2022-10-04T19:03:31.334Z,8.77
2022-10-04T19:06:24.801Z,8.77
2022-10-04T19:09:04.521Z,8.78
2022-10-04T19:11:39.457Z,8.82
2022-10-04T19:14:25.884Z,8.83
2022-10-04T19:17:03.371Z,8.80
2022-10-04T19:19:42.368Z,8.82
2022-10-04T19:22:16.093Z,8.80
2022-10-04T19:25:22.375Z,8.77
2022-10-04T19:28:00.944Z,8.80
2022-10-04T19:30:54.629Z,8.80
2022-10-04T19:33:25.980Z,8.83
2022-10-04T19:35:56.371Z,8.83
2022-10-04T19:38:51.809Z,8.82
2022-10-04T19:41:35.070Z,8.84
2022-10-04T19:44:11.426Z,8.82
2022-10-04T19:46:43.908Z,8.81
2022-10-04T19:49:19.241Z,8.81
2022-10-04T19:51:52.326Z,8.77
2022-10-04T19:54:29.500Z,8.77
2022-10-04T19:56:57.881Z,8.80
2022-10-04T19:59:41.647Z,8.82
2022-10-04T20:02:12.964Z,8.87
2022-10-04T20:04:42.447Z,8.92
2022-10-04T20:07:27.629Z,8.95
2022-10-04T20:09:56.435Z,8.98
2022-10-04T20:12:37.921Z,9.01
2022-10-04T20:15:17.703Z,9.01
2022-10-04T20:17:48.061Z,9.13
2022-10-04T20:20:38.484Z,9.13
2022-10-04T20:23:09.492Z,9.18
2022-10-04T20:25:46.289Z,9.19
2022-10-04T20:28:26.597Z,9.23
2022-10-04T20:31:00.046Z,9.17
2022-10-04T20:33:33.956Z,9.19
2022-10-04T20:36:11.587Z,9.28
2022-10-04T20:38:46.145Z,9.30
2022-10-04T20:41:29.319Z,9.26
2022-10-04T20:44:04.200Z,9.27
2022-10-04T20:46:38.387Z,9.23
2022-10-04T20:49:14.736Z,9.20
2022-10-04T20:51:49.757Z,9.13
2022-10-04T20:54:19.046Z,9.07
2022-10-04T20:56:48.159Z,9.09
2022-10-04T20:59:16.941Z,9.11
2022-10-04T21:02:00.912Z,9.17
2022-10-04T21:04:33.270Z,9.17
2022-10-04T21:07:06.153Z,9.23
2022-10-04T21:09:35.688Z,9.32
2022-10-04T21:12:05.632Z,9.41
2022-10-04T21:14:37.947Z,9.46
2022-10-04T21:17:28.403Z,9.54
2022-10-04T21:19:57.282Z,9.67
2022-10-04T21:22:31.089Z,9.75
2022-10-04T21:24:59.968Z,9.81
2022-10-04T21:27:28.687Z,9.81
2022-10-04T21:29:56.933Z,9.79
2022-10-04T21:32:25.187Z,9.84
2022-10-04T21:34:54.466Z,10.07
2022-10-04T21:37:24.523Z,10.07
2022-10-04T21:39:52.186Z,10.12
2022-10-04T21:42:19.953Z,10.15
2022-10-04T21:44:47.821Z,10.27
2022-10-04T21:47:15.867Z,10.17
2022-10-04T21:49:43.645Z,10.27
2022-10-04T21:52:11.522Z,10.30
2022-10-04T21:54:39.169Z,10.31
2022-10-04T21:57:07.342Z,10.42
2022-10-04T21:59:35.085Z,10.38
2022-10-04T22:02:02.903Z,10.33
2022-10-04T22:04:30.963Z,10.28
2022-10-04T22:06:58.577Z,10.32
2022-10-04T22:09:26.573Z,10.27
2022-10-04T22:11:54.338Z,10.25
2022-10-04T22:14:21.992Z,10.26
2022-10-04T22:16:50.395Z,10.17
2022-10-04T22:19:18.643Z,10.22
2022-10-04T22:21:46.728Z,10.25
2022-10-04T22:24:17.125Z,10.28
2022-10-04T22:26:45.062Z,10.23
2022-10-04T22:29:14.002Z,10.19
2022-10-04T22:31:44.103Z,10.13
2022-10-04T22:34:16.794Z,10.11
2022-10-04T22:36:44.731Z,10.06
2022-10-04T22:39:17.312Z,10.07
2022-10-04T22:41:48.693Z,10.05
2022-10-04T22:44:19.122Z,10.00
2022-10-04T22:46:52.198Z,9.99
2022-10-04T22:49:25.602Z,9.97
2022-10-04T22:51:55.121Z,9.94
2022-10-04T22:54:28.103Z,9.89
2022-10-04T22:56:56.623Z,9.82
2022-10-04T22:59:33.766Z,9.74
2022-10-04T23:02:02.272Z,9.70
2022-10-04T23:04:30.109Z,9.65
2022-10-04T23:06:58.445Z,9.65
2022-10-04T23:09:26.539Z,9.61
2022-10-04T23:11:54.191Z,9.54
2022-10-04T23:14:21.948Z,9.56
2022-10-04T23:16:50.751Z,9.55
2022-10-04T23:19:21.675Z,9.56
2022-10-04T23:21:52.712Z,9.60
2022-10-04T23:24:21.800Z,9.62
2022-10-04T23:26:53.144Z,9.61
2022-10-04T23:29:27.869Z,9.70
2022-10-04T23:31:55.886Z,9.71
2022-10-04T23:34:33.553Z,9.73
2022-10-04T23:37:01.197Z,9.65
2022-10-04T23:39:31.364Z,9.61
2022-10-04T23:42:00.633Z,9.54
2022-10-04T23:44:35.578Z,9.50
2022-10-04T23:47:03.512Z,9.48
2022-10-04T23:49:31.292Z,9.50
2022-10-04T23:52:01.204Z,9.58
2022-10-04T23:54:29.079Z,9.59
2022-10-04T23:56:57.144Z,9.58
2022-10-04T23:59:24.781Z,9.65
